Time;durP1;ratioP1;P1;durP2;ratioP2;P2;SDS_P1;SDS_P2;PMS_P1;PMS_P2;Temp;Humidity;BMP_temperature;BMP_pressure;BME280_temperature;BME280_humidity;BME280_pressure;Samples;Min_cycle;Max_cycle;Signal;HPM_P1;HPM_P2
2022/09/13 00:00:41;;;;;;;;;6.20;6.20;;;;;18.99;60.12;99354.56;5034684;28;8921;-62
2022/09/13 00:03:09;;;;;;;;;7.00;5.80;;;;;18.98;59.65;99353.69;5035055;28;8881;-62
2022/09/13 00:05:37;;;;;;;;;4.00;4.00;;;;;18.97;59.95;99343.94;5035105;28;8862;-62
2022/09/13 00:08:04;;;;;;;;;6.60;6.20;;;;;18.96;59.87;99336.88;5035773;28;8824;-62
2022/09/13 00:10:33;;;;;;;;;2.40;2.40;;;;;18.99;59.74;99338.34;5035444;28;8852;-62
2022/09/13 00:13:00;;;;;;;;;8.60;7.20;;;;;19.00;59.43;99334.63;5035715;28;8817;-61
2022/09/13 00:15:28;;;;;;;;;4.40;4.40;;;;;19.00;59.30;99334.63;5035529;28;8821;-62
2022/09/13 00:17:55;;;;;;;;;3.20;3.20;;;;;19.00;59.85;99330.09;5035496;28;8833;-62
2022/09/13 00:20:23;;;;;;;;;7.00;6.80;;;;;19.01;59.85;99326.34;5035324;28;8813;-62
2022/09/13 00:22:51;;;;;;;;;6.80;6.80;;;;;19.02;59.82;99322.63;5035261;28;9534;-62
2022/09/13 00:25:19;;;;;;;;;5.20;4.00;;;;;19.03;59.40;99335.09;5035416;28;8813;-62
2022/09/13 00:27:47;;;;;;;;;4.00;3.60;;;;;19.00;60.23;99332.78;5035547;28;8913;-60
2022/09/13 00:30:14;;;;;;;;;4.00;4.00;;;;;18.97;59.44;99327.75;5035319;28;8825;-61
2022/09/13 00:32:42;;;;;;;;;2.80;2.80;;;;;18.95;59.50;99312.75;5035316;28;8863;-60
2022/09/13 00:35:09;;;;;;;;;2.60;2.60;;;;;18.94;59.30;99303.84;5035033;28;8845;-63
2022/09/13 00:37:38;;;;;;;;;4.80;4.20;;;;;18.91;59.98;99293.41;5034733;28;8809;-62
2022/09/13 00:40:05;;;;;;;;;2.20;2.20;;;;;18.92;59.81;99284.31;5031371;28;8817;-62
2022/09/13 00:42:33;;;;;;;;;2.20;2.20;;;;;18.94;59.84;99290.34;5035071;28;8901;-61
2022/09/13 00:45:01;;;;;;;;;6.40;6.40;;;;;18.96;59.87;99288.28;5035040;28;8864;-62
2022/09/13 00:47:29;;;;;;;;;7.00;7.00;;;;;19.00;59.29;99297.69;5034949;28;8937;-60
2022/09/13 00:49:56;;;;;;;;;3.00;2.40;;;;;19.04;59.43;99288.16;5034529;28;8941;-61
2022/09/13 00:52:24;;;;;;;;;5.20;5.20;;;;;19.07;59.49;99282.41;5034939;28;8809;-61
2022/09/13 00:54:51;;;;;;;;;3.60;3.60;;;;;19.10;59.43;99275.75;5035156;28;9545;-61
2022/09/13 00:57:19;;;;;;;;;5.80;5.20;;;;;19.12;59.51;99281.81;5034811;28;8840;-62
2022/09/13 00:59:46;;;;;;;;;1.00;1.00;;;;;19.13;59.48;99286.19;5034642;28;8829;-62
2022/09/13 01:02:14;;;;;;;;;4.00;4.00;;;;;19.12;59.71;99274.53;5034680;28;8901;-61
2022/09/13 01:04:42;;;;;;;;;4.00;3.80;;;;;19.14;59.48;99275.22;5034371;28;9518;-62
2022/09/13 01:07:09;;;;;;;;;6.80;5.20;;;;;19.15;59.21;99274.19;5034874;28;8821;-62
2022/09/13 01:09:37;;;;;;;;;4.00;4.00;;;;;19.13;59.52;99278.91;5034144;28;8898;-62
2022/09/13 01:12:07;;;;;;;;;4.00;4.00;;;;;19.11;59.40;99283.69;5033952;28;8809;-60
2022/09/13 01:14:34;;;;;;;;;4.00;4.00;;;;;19.09;59.99;99282.19;5034448;28;8836;-61
2022/09/13 01:17:02;;;;;;;;;4.40;3.60;;;;;19.06;59.92;99280.72;5034452;28;8913;-62
2022/09/13 01:19:29;;;;;;;;;2.20;2.20;;;;;19.04;59.92;99280.06;5033836;28;8821;-60
2022/09/13 01:21:57;;;;;;;;;7.80;6.60;;;;;19.03;60.12;99283.81;5034197;28;8802;-60
2022/09/13 01:24:24;;;;;;;;;4.20;3.80;;;;;19.02;59.64;99267.78;5033973;28;8900;-61
2022/09/13 01:26:52;;;;;;;;;4.00;4.00;;;;;19.01;60.17;99272.38;5034465;28;8829;-60
2022/09/13 01:29:19;;;;;;;;;5.20;5.20;;;;;19.01;60.16;99260.72;5034046;28;8817;-62
2022/09/13 01:31:47;;;;;;;;;5.20;4.80;;;;;19.04;60.14;99263.88;5034111;28;8832;-61
2022/09/13 01:34:15;;;;;;;;;5.00;4.00;;;;;19.07;60.09;99265.38;5033812;28;8880;-62
2022/09/13 01:36:42;;;;;;;;;5.20;5.20;;;;;19.09;59.91;99256.06;5033998;28;8828;-62
2022/09/13 01:39:10;;;;;;;;;5.20;5.20;;;;;19.10;59.65;99260.41;5033822;28;8821;-62
2022/09/13 01:41:41;;;;;;;;;3.20;3.20;;;;;19.15;59.46;99251.75;5033339;28;8891;-62
2022/09/13 01:44:09;;;;;;;;;2.20;2.20;;;;;19.18;59.89;99262.16;5033927;28;9490;-62
2022/09/13 01:46:36;;;;;;;;;3.80;2.20;;;;;19.19;59.71;99258.44;5034127;28;9590;-62
2022/09/13 01:49:04;;;;;;;;;5.80;4.20;;;;;19.19;59.41;99259.28;5032743;28;8931;-62
2022/09/13 01:51:32;;;;;;;;;6.20;6.20;;;;;19.19;59.19;99259.28;5033605;28;9577;-61
2022/09/13 01:54:01;;;;;;;;;4.80;4.80;;;;;19.20;59.40;99266.34;5033914;28;8801;-62
2022/09/13 01:56:28;;;;;;;;;4.80;4.80;;;;;19.17;60.03;99255.91;5033980;28;8820;-62
2022/09/13 01:58:56;;;;;;;;;6.00;4.80;;;;;19.13;59.72;99259.19;5033686;28;8809;-62
2022/09/13 02:01:24;;;;;;;;;4.00;4.00;;;;;19.06;59.90;99264.50;5033770;28;8909;-60
2022/09/13 02:03:54;;;;;;;;;4.60;4.00;;;;;18.98;60.12;99266.53;5033700;28;8841;-60
2022/09/13 02:06:22;;;;;;;;;5.20;5.20;;;;;18.94;60.49;99260.66;5033863;28;9510;-60
2022/09/13 02:08:49;;;;;;;;;3.20;3.20;;;;;18.91;60.15;99252.94;5033495;28;8885;-60
2022/09/13 02:11:17;;;;;;;;;4.80;4.60;;;;;18.87;60.30;99259.75;5033647;28;8813;-61
2022/09/13 02:13:45;;;;;;;;;7.00;5.20;;;;;18.87;60.78;99258.91;5033293;28;8821;-62
2022/09/13 02:16:13;;;;;;;;;3.20;3.20;;;;;18.90;60.14;99259.38;5033753;28;8817;-62
2022/09/13 02:18:41;;;;;;;;;4.00;4.00;;;;;18.96;60.30;99263.19;5033559;28;8852;-60
2022/09/13 02:21:08;;;;;;;;;4.00;4.00;;;;;19.02;60.11;99262.38;5033615;28;8833;-61
2022/09/13 02:23:36;;;;;;;;;4.60;4.20;;;;;19.12;59.61;99254.84;5032818;28;8813;-62
2022/09/13 02:26:04;;;;;;;;;5.00;4.60;;;;;19.21;59.48;99261.81;5033184;28;8836;-61
2022/09/13 02:28:31;;;;;;;;;5.60;5.20;;;;;19.28;59.32;99255.41;5033377;28;8897;-60
2022/09/13 02:30:59;;;;;;;;;5.20;5.20;;;;;19.36;59.31;99252.56;5032973;28;8817;-61
2022/09/13 02:33:27;;;;;;;;;4.00;2.40;;;;;19.42;58.70;99254.50;5033000;28;8919;-62
2022/09/13 02:35:54;;;;;;;;;5.20;5.20;;;;;19.48;59.56;99253.75;5033314;28;8817;-62
2022/09/13 02:38:22;;;;;;;;;5.60;4.00;;;;;19.54;58.98;99252.97;5033179;28;8908;-61
2022/09/13 02:40:49;;;;;;;;;5.20;4.20;;;;;19.58;59.15;99253.41;5032092;28;8885;-59
2022/09/13 02:43:17;;;;;;;;;4.00;4.00;;;;;19.61;58.89;99261.09;5033764;28;9514;-62
2022/09/13 02:45:44;;;;;;;;;5.00;4.00;;;;;19.63;58.68;99257.19;5033056;28;8897;-62
2022/09/13 02:48:14;;;;;;;;;7.20;5.00;;;;;19.66;59.08;99256.78;5033171;28;8849;-61
2022/09/13 02:50:42;;;;;;;;;3.60;3.60;;;;;19.69;58.89;99255.56;5032900;28;9488;-60
2022/09/13 02:53:09;;;;;;;;;4.60;4.40;;;;;19.69;58.63;99251.00;5032924;28;8933;-60
2022/09/13 02:55:37;;;;;;;;;4.00;4.00;;;;;19.72;58.62;99253.28;5033220;28;8889;-61
2022/09/13 02:58:04;;;;;;;;;3.20;2.40;;;;;19.74;58.70;99243.16;5033042;28;8829;-61
2022/09/13 03:00:32;;;;;;;;;4.40;4.40;;;;;19.75;58.55;99242.13;5032498;28;8905;-60
2022/09/13 03:03:00;;;;;;;;;4.40;4.40;;;;;19.74;58.35;99236.91;5032853;28;8870;-62
2022/09/13 03:05:27;;;;;;;;;4.20;4.00;;;;;19.73;58.75;99241.44;5032959;28;8837;-61
2022/09/13 03:07:55;;;;;;;;;6.60;6.20;;;;;19.72;58.87;99245.19;5032928;28;8910;-61
2022/09/13 03:10:23;;;;;;;;;4.00;4.00;;;;;19.72;58.66;99245.19;5032029;28;8845;-62
2022/09/13 03:12:50;;;;;;;;;3.20;3.20;;;;;19.72;58.87;99245.19;5031645;28;8853;-60
2022/09/13 03:15:18;;;;;;;;;4.40;2.80;;;;;19.74;58.61;99250.41;5031829;28;8817;-60
2022/09/13 03:17:45;;;;;;;;;4.00;4.00;;;;;19.75;58.74;99238.56;5032206;28;8820;-61
2022/09/13 03:20:13;;;;;;;;;4.60;4.00;;;;;19.77;58.79;99248.16;5031819;28;8845;-60
2022/09/13 03:22:41;;;;;;;;;6.20;5.00;;;;;19.79;58.79;99243.38;5031932;28;8825;-60
2022/09/13 03:25:08;;;;;;;;;4.00;4.00;;;;;19.81;58.39;99243.19;5029760;28;8840;-60
2022/09/13 03:27:36;;;;;;;;;4.40;4.00;;;;;19.82;58.65;99245.69;5030218;28;8829;-60
2022/09/13 03:30:03;;;;;;;;;4.00;4.00;;;;;19.83;58.52;99247.38;5029478;28;8821;-61
2022/09/13 03:32:31;;;;;;;;;4.00;4.00;;;;;19.83;58.82;99252.78;5029960;28;8852;-60
2022/09/13 03:34:59;;;;;;;;;5.00;5.00;;;;;19.84;58.35;99251.72;5032678;28;8853;-60
2022/09/13 03:37:26;;;;;;;;;2.80;2.80;;;;;19.84;58.51;99246.31;5035319;28;8833;-62
2022/09/13 03:39:54;;;;;;;;;5.00;4.00;;;;;19.84;58.73;99232.81;5034977;28;8821;-60
2022/09/13 03:42:21;;;;;;;;;5.80;5.80;;;;;19.82;58.61;99244.84;5034894;28;8848;-60
2022/09/13 03:44:50;;;;;;;;;3.20;3.20;;;;;19.76;58.68;99251.03;5032668;28;8829;-60
2022/09/13 03:47:17;;;;;;;;;5.00;4.80;;;;;19.67;58.53;99247.66;5033598;28;8849;-60
2022/09/13 03:49:45;;;;;;;;;2.00;2.00;;;;;19.64;58.95;99244.53;5034253;28;8825;-61
2022/09/13 03:52:13;;;;;;;;;4.00;4.00;;;;;19.63;59.06;99251.78;5034495;28;9582;-60
2022/09/13 03:54:40;;;;;;;;;4.40;4.40;;;;;19.64;59.05;99258.84;5033228;28;8909;-60
2022/09/13 03:57:08;;;;;;;;;4.40;4.40;;;;;19.65;58.99;99255.13;5032850;28;8837;-61
2022/09/13 03:59:37;;;;;;;;;4.00;4.00;;;;;19.65;59.06;99251.59;5034070;28;8845;-60
2022/09/13 04:02:05;;;;;;;;;4.80;4.80;;;;;19.64;58.99;99248.03;5033714;28;8853;-60
2022/09/13 04:04:32;;;;;;;;;1.20;1.00;;;;;19.62;59.00;99241.16;5034453;28;8849;-60
2022/09/13 04:07:00;;;;;;;;;3.60;3.60;;;;;19.63;59.35;99245.53;5034831;28;8829;-60
2022/09/13 04:09:28;;;;;;;;;7.40;5.00;;;;;19.61;58.74;99236.78;5034569;28;8933;-60
2022/09/13 04:11:55;;;;;;;;;5.00;4.40;;;;;19.59;59.07;99228.91;5034812;28;8917;-61
2022/09/13 04:14:25;;;;;;;;;4.00;4.00;;;;;19.59;58.93;99236.16;5034440;28;8845;-61
2022/09/13 04:16:53;;;;;;;;;4.60;4.20;;;;;19.59;58.97;99238.88;5034486;28;8945;-60
2022/09/13 04:19:20;;;;;;;;;3.20;3.20;;;;;19.56;59.18;99231.97;5034649;28;8892;-60
2022/09/13 04:21:48;;;;;;;;;4.00;4.00;;;;;19.53;59.33;99235.09;5033917;28;8913;-60
2022/09/13 04:24:16;;;;;;;;;3.20;2.40;;;;;19.52;59.76;99238.81;5034427;28;8825;-60
2022/09/13 04:26:43;;;;;;;;;4.00;4.00;;;;;19.50;59.47;99238.16;5034118;28;9681;-60
2022/09/13 04:29:11;;;;;;;;;4.60;4.60;;;;;19.47;59.63;99235.88;5034506;28;8825;-60
2022/09/13 04:31:39;;;;;;;;;4.00;4.00;;;;;19.48;59.49;99229.44;5034732;28;8893;-60
2022/09/13 04:34:06;;;;;;;;;4.00;4.00;;;;;19.47;59.60;99218.81;5034322;28;8878;-61
2022/09/13 04:36:34;;;;;;;;;4.20;4.20;;;;;19.45;59.36;99210.06;5034420;28;9497;-60
2022/09/13 04:39:02;;;;;;;;;8.80;7.60;;;;;19.43;59.98;99209.44;5033940;28;8840;-60
2022/09/13 04:41:31;;;;;;;;;4.60;4.00;;;;;19.41;59.58;99209.63;5034189;28;8801;-61
2022/09/13 04:43:59;;;;;;;;;4.20;3.80;;;;;19.40;59.84;99212.53;5034139;28;8898;-61
2022/09/13 04:46:26;;;;;;;;;5.00;4.80;;;;;19.39;60.00;99224.34;5034344;28;8909;-60
2022/09/13 04:48:54;;;;;;;;;5.00;4.00;;;;;19.39;59.62;99225.22;5034080;28;9470;-61
2022/09/13 04:51:22;;;;;;;;;4.00;4.00;;;;;19.38;60.08;99226.25;5032906;28;8894;-61
2022/09/13 04:53:49;;;;;;;;;5.40;5.40;;;;;19.38;59.48;99237.03;5032000;28;8865;-60
2022/09/13 04:56:18;;;;;;;;;4.00;3.20;;;;;19.36;60.09;99233.69;5034190;28;9685;-60
2022/09/13 04:58:46;;;;;;;;;0.00;0.00;;;;;19.36;59.66;99243.66;5034085;28;8917;-61
2022/09/13 05:01:13;;;;;;;;;3.00;1.60;;;;;19.36;59.50;99244.47;5033185;28;8817;-60
2022/09/13 05:03:41;;;;;;;;;4.40;2.80;;;;;19.35;60.22;99236.59;5033952;28;8828;-62
2022/09/13 05:06:08;;;;;;;;;2.80;2.80;;;;;19.33;59.92;99238.63;5033960;28;8921;-60
2022/09/13 05:08:36;;;;;;;;;4.00;4.00;;;;;19.31;60.23;99235.28;5033545;28;8824;-60
2022/09/13 05:11:04;;;;;;;;;1.80;1.80;;;;;19.30;60.37;99230.94;5033189;28;8979;-60
2022/09/13 05:13:32;;;;;;;;;4.00;4.00;;;;;19.30;59.63;99242.59;5032875;28;8841;-61
2022/09/13 05:16:00;;;;;;;;;4.00;3.20;;;;;19.30;60.06;99244.44;5032919;28;8841;-60
2022/09/13 05:18:27;;;;;;;;;4.00;3.20;;;;;19.27;60.42;99232.16;5031582;28;8917;-61
2022/09/13 05:20:55;;;;;;;;;1.20;1.20;;;;;19.26;60.34;99233.19;5031241;28;8833;-61
2022/09/13 05:23:22;;;;;;;;;2.20;2.20;;;;;19.25;60.50;99231.53;5031894;28;9193;-61
2022/09/13 05:25:50;;;;;;;;;4.00;4.00;;;;;19.23;60.10;99230.03;5031692;28;8828;-60
2022/09/13 05:28:17;;;;;;;;;6.80;5.60;;;;;19.21;60.39;99230.22;5031190;28;9514;-61
2022/09/13 05:30:45;;;;;;;;;3.60;3.60;;;;;19.20;60.28;99233.94;5031227;28;8836;-62
2022/09/13 05:33:12;;;;;;;;;4.40;4.00;;;;;19.18;60.45;99230.59;5031831;28;8913;-61
2022/09/13 05:35:40;;;;;;;;;4.80;3.40;;;;;19.18;60.25;99230.59;5031963;28;8927;-61
2022/09/13 05:38:07;;;;;;;;;7.00;5.20;;;;;19.17;60.51;99228.91;5032036;28;8901;-60
2022/09/13 05:40:35;;;;;;;;;4.40;4.00;;;;;19.17;60.47;99239.72;5031095;28;8840;-60
2022/09/13 05:43:02;;;;;;;;;5.40;5.40;;;;;19.17;60.54;99226.22;5030597;28;8829;-61
2022/09/13 05:45:30;;;;;;;;;5.40;4.80;;;;;19.18;60.52;99227.06;5029764;28;8878;-62
2022/09/13 05:47:58;;;;;;;;;5.40;5.20;;;;;19.18;60.53;99229.78;5029770;28;8832;-62
2022/09/13 05:50:26;;;;;;;;;4.00;4.00;;;;;19.19;60.61;99229.59;5029374;28;8844;-62
2022/09/13 05:53:13;;;;;;;;;4.60;3.60;;;;;19.21;60.73;99230.22;5029167;28;9077;-60
2022/09/13 05:55:41;;;;;;;;;6.60;5.20;;;;;19.22;60.59;99231.91;5027806;28;8837;-60
2022/09/13 05:58:09;;;;;;;;;7.00;4.60;;;;;19.26;60.42;99237.75;5026656;28;8909;-61
2022/09/13 06:00:37;;;;;;;;;4.00;4.00;;;;;19.28;60.76;99246.50;5027979;28;8836;-60
2022/09/13 06:03:04;;;;;;;;;5.80;4.00;;;;;19.30;60.51;99250.69;5028517;28;8860;-61
2022/09/13 06:05:32;;;;;;;;;4.60;4.00;;;;;19.34;60.72;99251.94;5028914;28;8857;-60
2022/09/13 06:07:59;;;;;;;;;1.00;1.00;;;;;19.36;60.91;99255.28;5028246;28;9513;-60
2022/09/13 06:10:27;;;;;;;;;4.00;4.00;;;;;19.40;60.05;99256.56;5028476;28;8840;-60
2022/09/13 06:12:54;;;;;;;;;5.20;5.20;;;;;19.43;60.24;99255.34;5029732;28;8864;-60
2022/09/13 06:15:22;;;;;;;;;4.00;4.00;;;;;19.46;60.58;99263.91;5029614;28;8837;-60
2022/09/13 06:17:50;;;;;;;;;5.00;4.00;;;;;19.48;59.92;99250.19;5028683;28;8904;-62
2022/09/13 06:20:17;;;;;;;;;3.20;3.20;;;;;19.50;60.43;99256.25;5029884;28;8914;-60
2022/09/13 06:22:45;;;;;;;;;2.40;2.40;;;;;19.51;60.13;99250.63;5029568;28;9502;-61
2022/09/13 06:25:12;;;;;;;;;2.40;2.40;;;;;19.53;60.46;99256.69;5029484;28;8828;-60
2022/09/13 06:27:40;;;;;;;;;5.80;5.80;;;;;19.54;60.18;99250.25;5029281;28;8855;-62
2022/09/13 06:30:08;;;;;;;;;6.60;5.80;;;;;19.55;59.95;99249.22;5029524;28;8857;-61
2022/09/13 06:32:35;;;;;;;;;5.00;5.00;;;;;19.58;60.07;99248.00;5029823;28;8859;-61
2022/09/13 06:35:03;;;;;;;;;2.80;2.80;;;;;19.59;59.77;99252.38;5030384;28;8945;-62
2022/09/13 06:37:31;;;;;;;;;5.80;5.00;;;;;19.60;59.99;99249.47;5030252;28;8910;-60
2022/09/13 06:39:58;;;;;;;;;7.60;6.60;;;;;19.62;60.08;99250.13;5030851;28;8841;-60
2022/09/13 06:42:26;;;;;;;;;5.00;4.80;;;;;19.64;60.14;99247.22;5030760;28;8856;-61
2022/09/13 06:44:54;;;;;;;;;5.80;5.80;;;;;19.66;59.54;99243.28;5030547;28;8825;-61
2022/09/13 06:47:22;;;;;;;;;4.00;4.00;;;;;19.68;59.94;99246.63;5030623;28;8836;-61
2022/09/13 06:49:49;;;;;;;;;4.80;4.00;;;;;19.71;60.04;99246.22;5030442;28;8929;-60
2022/09/13 06:52:17;;;;;;;;;4.00;4.00;;;;;19.75;60.36;99257.47;5029887;28;8845;-62
2022/09/13 06:54:45;;;;;;;;;4.00;4.00;;;;;19.76;59.66;99249.19;5029416;28;8917;-63
2022/09/13 06:57:12;;;;;;;;;4.20;3.20;;;;;19.81;60.13;99252.09;5028733;28;8840;-60
2022/09/13 06:59:40;;;;;;;;;4.80;4.80;;;;;19.84;59.77;99254.44;5028821;28;9495;-60
2022/09/13 07:02:08;;;;;;;;;4.00;4.00;;;;;19.83;60.14;99258.19;5029784;28;8913;-60
2022/09/13 07:04:35;;;;;;;;;2.80;2.80;;;;;19.85;60.07;99263.34;5030102;28;8857;-61
2022/09/13 07:07:03;;;;;;;;;4.20;4.00;;;;;19.86;60.30;99263.19;5029996;28;8907;-60
2022/09/13 07:09:31;;;;;;;;;5.00;5.00;;;;;19.89;59.94;99260.06;5032254;28;8825;-60
2022/09/13 07:11:58;;;;;;;;;1.20;1.20;;;;;19.92;59.72;99262.38;5034136;28;8833;-60
2022/09/13 07:14:25;;;;;;;;;4.00;4.00;;;;;19.94;59.79;99268.41;5034255;28;8933;-61
2022/09/13 07:16:53;;;;;;;;;4.00;4.00;;;;;19.97;59.63;99261.78;5034459;28;8880;-63
2022/09/13 07:19:21;;;;;;;;;5.00;5.00;;;;;20.00;59.53;99272.19;5033557;28;8825;-62
2022/09/13 07:21:49;;;;;;;;;4.00;4.00;;;;;20.06;59.89;99268.75;5033794;28;8825;-61
2022/09/13 07:24:18;;;;;;;;;5.40;5.00;;;;;20.12;59.66;99262.53;5033238;28;8825;-60
2022/09/13 07:26:45;;;;;;;;;6.20;5.80;;;;;20.18;59.51;99264.47;5033571;28;9584;-60
2022/09/13 07:29:13;;;;;;;;;8.00;7.00;;;;;20.24;59.13;99267.19;5033050;28;8933;-62
2022/09/13 07:31:41;;;;;;;;;6.20;5.00;;;;;20.32;59.02;99264.31;5032854;28;9626;-62
2022/09/13 07:34:09;;;;;;;;;2.00;2.00;;;;;20.40;59.15;99261.44;5032480;28;8912;-62
2022/09/13 07:36:36;;;;;;;;;3.20;3.20;;;;;20.50;58.80;99255.66;5033774;28;8853;-60
2022/09/13 07:39:06;;;;;;;;;3.20;3.20;;;;;20.58;58.86;99253.63;5033494;28;9083;-60
2022/09/13 07:41:39;;;;;;;;;5.80;5.40;;;;;20.69;58.63;99247.63;5033590;28;8967;-60
2022/09/13 07:44:07;;;;;;;;;7.80;7.20;;;;;20.77;58.20;99259.13;5033610;28;8829;-62
2022/09/13 07:46:42;;;;;;;;;6.80;6.20;;;;;20.83;58.79;99257.47;5031913;28;8849;-60
2022/09/13 07:49:10;;;;;;;;;4.80;4.00;;;;;20.88;58.42;99263.94;5030832;28;9562;-60
2022/09/13 07:51:38;;;;;;;;;4.80;4.80;;;;;20.97;58.29;99264.63;5030721;28;8837;-60
2022/09/13 07:54:06;;;;;;;;;4.00;3.20;;;;;21.12;57.96;99270.69;5031987;28;9569;-60
2022/09/13 07:56:33;;;;;;;;;2.00;2.00;;;;;21.29;57.37;99269.25;5032144;28;8840;-63
2022/09/13 07:59:01;;;;;;;;;2.80;2.80;;;;;21.45;57.20;99263.44;5032092;28;8832;-60
2022/09/13 08:01:28;;;;;;;;;2.00;2.00;;;;;21.55;57.40;99270.09;5032272;28;8908;-61
2022/09/13 08:03:56;;;;;;;;;4.00;4.00;;;;;21.67;56.90;99268.47;5032362;28;8867;-60
2022/09/13 08:06:23;;;;;;;;;3.60;2.00;;;;;21.80;56.93;99265.75;5032924;28;8825;-60
2022/09/13 08:08:51;;;;;;;;;3.80;3.60;;;;;21.96;56.53;99278.03;5032807;28;8837;-60
2022/09/13 08:11:19;;;;;;;;;2.00;2.00;;;;;22.14;56.31;99270.91;5029620;28;8875;-60
2022/09/13 08:13:46;;;;;;;;;1.60;1.60;;;;;22.28;55.70;99275.28;5029628;28;9132;-62
2022/09/13 08:16:14;;;;;;;;;4.20;4.00;;;;;22.40;56.02;99270.03;5029276;28;8925;-62
2022/09/13 08:18:41;;;;;;;;;1.00;1.00;;;;;22.49;55.88;99274.19;5030000;28;8824;-61
2022/09/13 08:21:09;;;;;;;;;4.00;2.80;;;;;22.53;55.52;99284.41;5029762;28;8852;-61
2022/09/13 08:23:36;;;;;;;;;5.00;4.40;;;;;22.54;55.62;99285.25;5030496;28;8833;-61
2022/09/13 08:26:05;;;;;;;;;4.80;4.60;;;;;22.56;55.45;99285.88;5030505;28;8829;-61
2022/09/13 08:28:33;;;;;;;;;4.00;4.00;;;;;22.55;55.39;99285.03;5029773;28;8841;-60
2022/09/13 08:31:01;;;;;;;;;3.20;3.20;;;;;22.61;55.68;99288.78;5031244;28;8845;-61
2022/09/13 08:33:28;;;;;;;;;5.00;4.20;;;;;22.71;55.88;99298.16;5031001;28;8837;-61
2022/09/13 08:35:57;;;;;;;;;4.40;4.00;;;;;22.87;55.17;99296.81;5031317;28;8952;-61
2022/09/13 08:38:25;;;;;;;;;2.00;2.00;;;;;22.95;55.08;99291.13;5030938;28;8820;-61
2022/09/13 08:40:52;;;;;;;;;4.60;4.00;;;;;22.98;55.05;99290.72;5029080;28;8840;-60
2022/09/13 08:43:20;;;;;;;;;4.00;4.00;;;;;23.13;54.95;99288.53;5028774;28;8845;-61
2022/09/13 08:45:47;;;;;;;;;5.60;5.00;;;;;23.32;54.47;99274.84;5028662;28;9274;-61
2022/09/13 08:48:15;;;;;;;;;6.60;5.20;;;;;23.51;54.44;99276.59;5027568;28;8839;-61
2022/09/13 08:50:43;;;;;;;;;5.60;5.60;;;;;23.67;54.11;99275.22;5027167;28;8872;-60
2022/09/13 08:53:11;;;;;;;;;5.00;5.00;;;;;23.78;53.49;99271.75;5026732;28;8848;-61
2022/09/13 08:55:39;;;;;;;;;2.40;2.40;;;;;23.86;53.71;99275.06;5027431;28;8933;-60
2022/09/13 08:58:06;;;;;;;;;3.80;3.80;;;;;23.90;53.70;99276.28;5026650;28;8925;-61
2022/09/13 09:00:34;;;;;;;;;4.80;4.80;;;;;23.86;53.74;99274.22;5026825;28;8829;-61
2022/09/13 09:03:02;;;;;;;;;3.40;3.40;;;;;23.82;53.59;99273.00;5027548;28;8848;-61
2022/09/13 09:05:30;;;;;;;;;3.20;3.20;;;;;23.81;54.24;99276.78;5027985;28;8886;-61
2022/09/13 09:07:57;;;;;;;;;5.00;5.00;;;;;23.88;53.63;99272.13;5027898;28;8821;-61
2022/09/13 09:10:25;;;;;;;;;3.00;3.00;;;;;23.97;53.92;99281.69;5026362;28;8845;-61
2022/09/13 09:12:53;;;;;;;;;3.40;3.40;;;;;24.02;53.16;99277.22;5025062;28;8887;-60
2022/09/13 09:15:21;;;;;;;;;5.60;5.40;;;;;24.06;53.37;99286.59;5025995;28;8837;-61
2022/09/13 09:17:49;;;;;;;;;6.00;5.00;;;;;24.09;53.70;99280.72;5026248;28;9249;-62
2022/09/13 09:20:17;;;;;;;;;5.00;5.00;;;;;24.10;53.61;99276.09;5026389;28;8854;-60
2022/09/13 09:22:44;;;;;;;;;3.00;3.00;;;;;24.16;53.52;99265.16;5017239;28;8817;-60
2022/09/13 09:25:13;;;;;;;;;6.00;5.60;;;;;24.31;53.29;99281.13;5028819;28;8852;-61
2022/09/13 09:27:40;;;;;;;;;3.40;3.00;;;;;24.40;53.57;99275.16;5029570;28;8873;-60
2022/09/13 09:30:08;;;;;;;;;5.60;5.60;;;;;24.45;53.33;99271.75;5028372;28;8913;-61
2022/09/13 09:32:37;;;;;;;;;5.80;5.60;;;;;24.50;53.04;99266.47;5027132;28;8832;-61
2022/09/13 09:35:05;;;;;;;;;6.80;6.20;;;;;24.56;52.90;99271.03;5027374;28;8860;-61
2022/09/13 09:37:32;;;;;;;;;5.00;5.00;;;;;24.57;52.61;99267.25;5027459;28;8841;-61
2022/09/13 09:40:02;;;;;;;;;7.00;7.00;;;;;24.61;52.80;99273.88;5027383;28;9482;-61
2022/09/13 09:42:30;;;;;;;;;5.00;5.00;;;;;24.73;52.65;99272.06;5026836;28;8848;-61
2022/09/13 09:44:59;;;;;;;;;5.80;5.80;;;;;24.80;52.46;99261.94;5026719;28;9123;-61
2022/09/13 09:53:32;;;;;;;;;5.20;3.80;;;;;25.22;51.81;99261.78;5029145;28;8805;-62
2022/09/13 09:56:03;;;;;;;;;7.00;6.80;;;;;25.50;51.12;99252.97;5028628;28;8866;-60
2022/09/13 09:58:31;;;;;;;;;5.80;5.80;;;;;25.78;50.84;99256.66;5029049;28;8836;-61
2022/09/13 10:01:00;;;;;;;;;6.00;6.00;;;;;26.07;50.24;99259.34;5028321;28;8959;-61
2022/09/13 10:03:28;;;;;;;;;5.60;5.60;;;;;26.34;50.19;99256.94;5027974;28;8925;-61
2022/09/13 10:05:55;;;;;;;;;6.20;6.20;;;;;26.49;49.49;99249.09;5027802;28;9011;-60
2022/09/13 10:45:02;;;;;;;;;5.00;5.00;;;;;29.19;46.16;99248.16;5031110;28;8828;-61
2022/09/13 10:47:32;;;;;;;;;7.20;6.60;;;;;29.02;46.84;99253.72;5032251;28;8829;-62
2022/09/13 10:49:59;;;;;;;;;5.80;5.60;;;;;29.05;47.15;99250.44;5031960;28;8825;-62
2022/09/13 10:52:27;;;;;;;;;5.40;5.00;;;;;29.18;46.60;99236.34;5031949;28;8829;-61
2022/09/13 10:54:54;;;;;;;;;5.40;5.00;;;;;29.33;46.68;99233.75;5031870;28;8829;-61
2022/09/13 10:57:22;;;;;;;;;4.60;4.00;;;;;29.41;46.09;99237.94;5031076;28;8840;-62
2022/09/13 10:59:50;;;;;;;;;9.00;7.80;;;;;29.48;46.28;99236.63;5031568;28;8841;-61
2022/09/13 11:02:18;;;;;;;;;6.60;6.20;;;;;29.56;46.30;99233.44;5031295;28;8856;-61
2022/09/13 11:04:45;;;;;;;;;6.20;6.20;;;;;29.56;46.27;99238.94;5031236;28;8829;-60
2022/09/13 11:07:13;;;;;;;;;5.00;5.00;;;;;29.42;46.54;99232.19;5030700;28;8832;-61
2022/09/13 11:09:40;;;;;;;;;4.80;4.80;;;;;29.50;46.02;99228.94;5030185;28;8848;-61
2022/09/13 11:12:08;;;;;;;;;4.20;4.20;;;;;29.81;45.21;99219.91;5030728;28;9245;-61
2022/09/13 11:14:36;;;;;;;;;4.60;4.00;;;;;30.33;44.94;99220.03;5029831;28;8829;-61
2022/09/13 11:17:03;;;;;;;;;4.00;4.00;;;;;30.88;43.45;99221.13;5028765;28;8844;-61
2022/09/13 11:19:31;;;;;;;;;5.00;5.00;;;;;31.17;43.26;99227.81;5029490;28;9173;-61
2022/09/13 11:21:59;;;;;;;;;5.20;4.00;;;;;31.12;42.96;99222.28;5028229;28;8840;-61
2022/09/13 11:24:27;;;;;;;;;7.00;6.00;;;;;31.26;43.01;99217.94;5028509;28;8836;-61
2022/09/13 11:26:55;;;;;;;;;4.40;3.80;;;;;31.32;42.78;99212.16;5028074;28;8909;-62
2022/09/13 11:29:22;;;;;;;;;5.40;5.40;;;;;31.30;43.18;99217.13;5027496;28;8844;-62
2022/09/13 11:31:50;;;;;;;;;6.00;6.00;;;;;31.43;42.68;99211.06;5027257;28;8852;-61
2022/09/13 11:34:18;;;;;;;;;6.00;6.00;;;;;31.96;41.77;99201.44;5027453;28;8847;-62
2022/09/13 11:36:47;;;;;;;;;1.40;1.00;;;;;32.70;40.34;99205.94;5027986;28;8833;-61
2022/09/13 11:39:15;;;;;;;;;4.60;3.80;;;;;33.20;40.43;99196.56;5028149;28;9722;-62
2022/09/13 11:41:42;;;;;;;;;5.00;5.00;;;;;33.37;39.51;99208.91;5027488;28;8853;-61
2022/09/13 11:44:10;;;;;;;;;4.40;4.40;;;;;33.53;39.50;99204.91;5027612;28;8917;-61
2022/09/13 11:46:38;;;;;;;;;6.00;6.00;;;;;33.98;39.41;99207.31;5027702;28;8924;-61
2022/09/13 11:49:06;;;;;;;;;5.40;5.20;;;;;34.68;37.50;99191.91;5027002;28;8832;-61
2022/09/13 11:51:34;;;;;;;;;4.40;4.40;;;;;35.42;36.74;99192.81;5027736;28;8924;-62
2022/09/13 11:54:02;;;;;;;;;5.20;5.00;;;;;36.20;36.27;99188.97;5027679;28;8905;-62
2022/09/13 11:56:31;;;;;;;;;5.60;5.60;;;;;36.98;35.61;99188.78;5029375;28;8829;-62
2022/09/13 11:58:58;;;;;;;;;6.80;5.40;;;;;37.45;34.65;99186.28;5031212;28;9518;-62
2022/09/13 12:01:26;;;;;;;;;4.60;4.20;;;;;37.31;35.08;99188.28;5029897;28;8952;-62
2022/09/13 12:03:54;;;;;;;;;6.20;6.20;;;;;36.31;36.74;99196.00;5028100;28;8889;-61
2022/09/13 12:06:22;;;;;;;;;5.00;5.00;;;;;36.22;37.09;99189.53;5031601;28;8916;-62
2022/09/13 12:08:49;;;;;;;;;4.80;4.20;;;;;36.61;35.87;99177.91;5031901;28;8911;-62
2022/09/13 12:11:18;;;;;;;;;6.00;6.00;;;;;36.75;36.16;99174.00;5018739;28;8888;-62
2022/09/13 12:13:47;;;;;;;;;6.00;6.00;;;;;36.44;36.31;99172.16;5022638;27;9717;-61
2022/09/13 12:16:14;;;;;;;;;4.80;4.60;;;;;35.69;38.10;99173.53;5029594;28;8841;-61
2022/09/13 12:18:42;;;;;;;;;7.60;7.40;;;;;35.52;37.88;99183.50;5029952;28;8843;-62
2022/09/13 12:21:10;;;;;;;;;7.20;6.40;;;;;35.23;38.79;99169.00;5028940;28;8933;-62
2022/09/13 12:23:38;;;;;;;;;2.80;2.80;;;;;34.77;38.76;99174.38;5026913;28;8829;-62
2022/09/13 12:26:05;;;;;;;;;5.00;5.00;;;;;34.17;40.43;99171.44;5027785;28;8820;-62